createdAt,value
2019-02-02T00:00:35.837Z,78.84
2019-02-02T00:03:07.425Z,79.04
2019-02-02T00:05:37.440Z,79.15
2019-02-02T00:08:07.980Z,78.84
2019-02-02T00:10:37.839Z,79.02
2019-02-02T00:13:08.390Z,79.30
2019-02-02T00:15:38.431Z,79.48
2019-02-02T00:18:08.579Z,79.75
2019-02-02T00:20:38.463Z,80.05
2019-02-02T00:23:08.772Z,80.11
2019-02-02T00:25:57.859Z,80.35
2019-02-02T00:29:06.471Z,80.54
2019-02-02T00:31:55.577Z,80.50
2019-02-02T00:34:44.688Z,80.86
2019-02-02T00:37:33.780Z,81.58
2019-02-02T00:40:23.252Z,81.83
2019-02-02T00:43:12.413Z,82.40
2019-02-02T00:46:01.519Z,82.25
2019-02-02T00:48:50.638Z,82.74
2019-02-02T00:51:39.816Z,82.90
2019-02-02T00:54:28.943Z,83.43
2019-02-02T00:57:18.061Z,83.07
2019-02-02T01:00:09.311Z,83.45
2019-02-02T01:02:58.420Z,83.76
2019-02-02T01:05:47.683Z,83.98
2019-02-02T01:08:36.850Z,84.37
2019-02-02T01:11:26.026Z,84.48
2019-02-02T01:14:15.498Z,84.31
2019-02-02T01:17:25.221Z,84.39
2019-02-02T01:20:07.557Z,84.72
2019-02-02T01:22:56.675Z,84.54
2019-02-02T01:25:45.813Z,84.42
2019-02-02T01:28:34.927Z,84.44
2019-02-02T01:31:24.027Z,84.53
2019-02-02T01:34:13.131Z,85.17
2019-02-02T01:37:02.241Z,85.21
2019-02-02T01:39:51.662Z,85.45
2019-02-02T01:42:40.820Z,85.46
2019-02-02T01:45:30.132Z,85.69
2019-02-02T01:48:19.854Z,86.08
2019-02-02T01:51:09.112Z,86.17
2019-02-02T01:53:58.501Z,86.38
2019-02-02T01:56:47.615Z,86.63
2019-02-02T01:59:36.701Z,86.61
2019-02-02T02:02:25.796Z,86.88
2019-02-02T02:05:15.028Z,86.96
2019-02-02T02:08:04.469Z,87.12
2019-02-02T02:10:53.574Z,87.21
2019-02-02T02:13:43.003Z,87.53
2019-02-02T02:16:32.388Z,87.91
2019-02-02T02:19:12.961Z,88.51
2019-02-02T02:22:02.023Z,88.59
2019-02-02T02:24:51.175Z,88.85
2019-02-02T02:27:40.433Z,89.23
2019-02-02T02:30:29.566Z,89.39
2019-02-02T02:33:18.738Z,89.62
2019-02-02T02:36:08.143Z,89.90
2019-02-02T02:38:57.272Z,90.07
2019-02-02T02:41:46.622Z,90.32
2019-02-02T02:44:35.764Z,90.54
2019-02-02T02:47:24.880Z,91.12
2019-02-02T02:50:54.564Z,91.46
2019-02-02T02:53:43.653Z,91.69
2019-02-02T02:56:32.745Z,91.86
2019-02-02T02:59:21.905Z,92.24
2019-02-02T03:02:10.970Z,92.44
2019-02-02T03:05:00.226Z,92.70
2019-02-02T03:07:51.615Z,93.02
2019-02-02T03:10:40.693Z,93.12
2019-02-02T03:13:30.120Z,93.22
2019-02-02T03:16:19.482Z,93.29
2019-02-02T03:19:03.322Z,93.38
2019-02-02T03:21:52.415Z,93.39
2019-02-02T03:24:41.510Z,93.32
2019-02-02T03:27:30.638Z,93.44
2019-02-02T03:30:20.497Z,93.46
2019-02-02T03:33:09.839Z,93.52
2019-02-02T03:35:58.999Z,93.59
2019-02-02T03:38:48.078Z,93.63
2019-02-02T03:41:37.212Z,93.64
2019-02-02T03:44:26.732Z,93.81
2019-02-02T03:50:10.319Z,93.91
2019-02-02T03:52:59.403Z,94.00
2019-02-02T03:55:48.598Z,94.06
2019-02-02T03:58:37.725Z,94.12
2019-02-02T04:01:29.868Z,94.20
2019-02-02T04:04:17.690Z,94.27
2019-02-02T04:07:06.791Z,94.35
2019-02-02T04:09:55.920Z,94.36
2019-02-02T04:12:45.040Z,94.45
2019-02-02T04:15:34.248Z,94.57
2019-02-02T04:18:23.649Z,94.66
2019-02-02T04:21:06.259Z,94.70
2019-02-02T04:23:55.674Z,94.85
2019-02-02T04:26:44.806Z,94.90
2019-02-02T04:29:33.914Z,94.94
2019-02-02T04:32:23.041Z,95.01
2019-02-02T04:35:12.424Z,95.09
2019-02-02T04:38:01.810Z,95.22
2019-02-02T04:40:51.526Z,95.23
2019-02-02T04:43:40.707Z,95.19
2019-02-02T04:46:29.857Z,95.16
2019-02-02T04:49:19.013Z,94.83
2019-02-02T04:52:08.328Z,94.61
2019-02-02T04:54:58.046Z,94.67
2019-02-02T04:57:49.477Z,94.68
2019-02-02T05:00:38.580Z,94.83
2019-02-02T05:03:27.709Z,94.89
2019-02-02T05:06:16.823Z,95.01
2019-02-02T05:09:47.247Z,95.07
2019-02-02T05:12:36.623Z,95.12
2019-02-02T05:15:25.730Z,95.09
2019-02-02T05:18:14.842Z,95.07
2019-02-02T05:20:56.617Z,95.06
2019-02-02T05:23:45.701Z,95.01
2019-02-02T05:26:35.067Z,95.04
2019-02-02T05:29:24.550Z,95.07
2019-02-02T05:32:15.827Z,94.93
2019-02-02T05:35:45.061Z,94.90
2019-02-02T05:38:34.511Z,94.87
2019-02-02T05:41:24.286Z,94.72
2019-02-02T05:44:13.390Z,94.64
2019-02-02T05:47:02.796Z,94.49
2019-02-02T05:49:51.892Z,94.31
2019-02-02T05:52:41.032Z,94.19
2019-02-02T05:55:30.503Z,93.97
2019-02-02T05:58:19.650Z,93.93
2019-02-02T06:04:07.212Z,93.88
2019-02-02T06:06:56.590Z,94.05
2019-02-02T06:09:45.934Z,94.06
2019-02-02T06:12:35.539Z,94.23
2019-02-02T06:15:24.713Z,94.18
2019-02-02T06:18:14.096Z,94.29
2019-02-02T06:20:56.482Z,94.26
2019-02-02T06:23:45.573Z,94.35
2019-02-02T06:26:34.696Z,94.43
2019-02-02T06:29:23.837Z,94.37
2019-02-02T06:32:12.957Z,94.47
2019-02-02T06:35:02.321Z,94.62
2019-02-02T06:37:51.459Z,94.70
2019-02-02T06:40:40.559Z,94.70
2019-02-02T06:43:30.367Z,94.76
2019-02-02T06:46:20.814Z,94.88
2019-02-02T06:49:09.932Z,94.94
2019-02-02T06:51:59.169Z,94.93
2019-02-02T06:54:48.260Z,94.89
2019-02-02T06:57:37.381Z,94.99
2019-02-02T07:00:26.931Z,95.09
2019-02-02T07:03:17.729Z,95.07
2019-02-02T07:06:07.134Z,95.07
2019-02-02T07:08:56.468Z,95.03
2019-02-02T07:11:45.592Z,94.97
2019-02-02T07:14:35.057Z,95.02
2019-02-02T07:17:24.181Z,95.14
2019-02-02T07:20:07.352Z,95.22
2019-02-02T07:22:49.585Z,95.43
2019-02-02T07:25:39.305Z,95.52
2019-02-02T07:28:28.453Z,95.63
2019-02-02T07:31:17.676Z,95.70
2019-02-02T07:34:06.767Z,95.92
2019-02-02T07:43:19.858Z,95.88
2019-02-02T07:46:14.896Z,95.96
2019-02-02T07:48:59.815Z,96.03
2019-02-02T07:51:49.240Z,95.96
2019-02-02T07:54:38.692Z,95.93
2019-02-02T07:57:27.798Z,95.74
2019-02-02T08:00:41.094Z,95.68
2019-02-02T08:03:28.953Z,95.48
2019-02-02T08:06:19.772Z,95.44
2019-02-02T08:09:49.122Z,95.45
2019-02-02T08:12:38.215Z,95.43
2019-02-02T08:16:08.467Z,95.32
2019-02-02T08:18:57.556Z,95.20
2019-02-02T08:21:46.700Z,95.05
2019-02-02T08:24:38.548Z,94.83
2019-02-02T08:27:26.696Z,94.86
2019-02-02T08:30:18.139Z,94.93
2019-02-02T08:33:07.428Z,94.91
2019-02-02T08:35:56.776Z,94.84
2019-02-02T08:38:45.957Z,94.84
2019-02-02T08:41:35.435Z,94.80
2019-02-02T08:44:25.036Z,94.68
2019-02-02T08:47:14.137Z,94.66
2019-02-02T08:50:03.344Z,94.56
2019-02-02T08:52:52.476Z,94.48
2019-02-02T08:55:41.554Z,94.46
2019-02-02T08:58:30.760Z,94.34
2019-02-02T09:01:20.224Z,94.29
2019-02-02T09:04:09.547Z,94.12
2019-02-02T09:06:59.071Z,93.97
2019-02-02T09:09:48.451Z,94.02
2019-02-02T09:12:37.693Z,93.97
2019-02-02T09:15:27.130Z,94.04
2019-02-02T09:18:16.641Z,93.76
2019-02-02T09:20:58.855Z,93.70
2019-02-02T09:23:47.970Z,93.16
2019-02-02T09:26:37.116Z,92.81
2019-02-02T09:29:26.625Z,92.57
2019-02-02T09:32:15.944Z,92.43
2019-02-02T09:34:58.304Z,92.61
2019-02-02T09:37:47.697Z,92.44
2019-02-02T09:43:31.057Z,91.86
2019-02-02T09:46:20.164Z,91.19
2019-02-02T09:49:10.089Z,91.13
2019-02-02T09:51:59.189Z,91.13
2019-02-02T09:54:48.599Z,90.67
2019-02-02T09:57:37.753Z,90.13
2019-02-02T10:00:31.221Z,89.86
2019-02-02T10:03:20.657Z,89.57
2019-02-02T10:06:09.733Z,89.49
2019-02-02T10:08:59.112Z,89.14
2019-02-02T10:11:48.529Z,88.96
2019-02-02T10:14:37.673Z,88.41
2019-02-02T10:17:26.884Z,88.32
2019-02-02T10:23:18.722Z,87.90
2019-02-02T10:26:15.640Z,88.09
2019-02-02T10:29:05.081Z,88.46
2019-02-02T10:31:54.185Z,88.08
2019-02-02T10:34:43.886Z,88.65
2019-02-02T10:37:25.594Z,89.09
2019-02-02T10:40:14.865Z,88.69
2019-02-02T10:46:19.725Z,88.11
2019-02-02T10:49:08.893Z,87.32
2019-02-02T10:51:58.010Z,87.66
2019-02-02T10:55:08.318Z,88.57
2019-02-02T11:01:12.766Z,87.79
2019-02-02T11:04:01.976Z,87.93
2019-02-02T11:06:51.137Z,88.06
2019-02-02T11:09:40.207Z,87.90
2019-02-02T11:12:29.348Z,88.42
2019-02-02T11:15:19.430Z,88.63
2019-02-02T11:18:10.118Z,89.54
2019-02-02T11:20:59.697Z,90.31
2019-02-02T11:23:42.067Z,89.90
2019-02-02T11:26:31.222Z,90.42
2019-02-02T11:29:20.768Z,91.44
2019-02-02T11:32:10.264Z,91.71
2019-02-02T11:34:59.414Z,91.90
2019-02-02T11:37:48.678Z,92.50
2019-02-02T11:40:37.889Z,92.72
2019-02-02T11:43:27.043Z,92.97
2019-02-02T11:46:16.172Z,93.03
2019-02-02T11:49:05.394Z,93.29
2019-02-02T11:51:54.507Z,93.17
2019-02-02T11:54:44.337Z,93.37
2019-02-02T11:57:33.686Z,93.36
2019-02-02T12:00:25.165Z,93.48
2019-02-02T12:03:14.246Z,93.46
2019-02-02T12:06:03.360Z,93.61
2019-02-02T12:08:52.828Z,93.58
2019-02-02T12:11:41.980Z,93.44
2019-02-02T12:14:31.105Z,93.37
2019-02-02T12:17:20.245Z,93.50
2019-02-02T12:20:11.081Z,93.63
2019-02-02T12:23:00.216Z,93.88
2019-02-02T12:25:41.862Z,94.01
2019-02-02T12:28:30.996Z,94.32
2019-02-02T12:31:20.110Z,94.79
2019-02-02T12:34:09.251Z,94.83
2019-02-02T12:36:58.371Z,94.99
2019-02-02T12:39:47.510Z,95.12
2019-02-02T12:42:36.642Z,95.16
2019-02-02T12:45:49.270Z,95.59
2019-02-02T12:48:38.456Z,96.03
2019-02-02T12:51:27.687Z,96.41
2019-02-02T12:54:16.823Z,96.61
2019-02-02T12:57:05.983Z,96.69
2019-02-02T12:59:55.218Z,96.88
2019-02-02T13:02:44.717Z,96.93
2019-02-02T13:05:33.865Z,96.90
2019-02-02T13:08:23.311Z,96.99
2019-02-02T13:11:12.525Z,97.04
2019-02-02T13:14:01.887Z,97.13
2019-02-02T13:16:51.003Z,97.15
2019-02-02T13:19:40.092Z,97.23
2019-02-02T13:22:29.270Z,97.20
2019-02-02T13:25:12.742Z,97.21
2019-02-02T13:28:01.898Z,97.28
2019-02-02T13:30:51.111Z,97.29
2019-02-02T13:33:40.202Z,97.27
2019-02-02T13:36:48.553Z,97.25
2019-02-02T13:39:37.964Z,97.12
2019-02-02T13:42:27.124Z,96.90
2019-02-02T13:45:56.420Z,96.94
2019-02-02T13:48:46.175Z,96.92
2019-02-02T13:51:35.279Z,96.71
2019-02-02T13:54:24.447Z,96.75
2019-02-02T13:57:13.556Z,96.69
2019-02-02T14:00:02.730Z,96.60
2019-02-02T14:03:02.420Z,96.61
2019-02-02T14:05:42.998Z,96.60
2019-02-02T14:08:32.483Z,96.51
2019-02-02T14:11:21.607Z,96.52
2019-02-02T14:14:10.721Z,96.39
2019-02-02T14:17:19.378Z,96.02
2019-02-02T14:20:09.817Z,95.77
2019-02-02T14:22:59.029Z,94.99
2019-02-02T14:25:40.500Z,94.60
2019-02-02T14:28:29.701Z,94.13
2019-02-02T14:31:19.119Z,93.90
2019-02-02T14:34:08.447Z,93.57
2019-02-02T14:36:57.533Z,93.17
2019-02-02T14:39:49.140Z,92.88
2019-02-02T14:42:37.524Z,92.39
2019-02-02T14:45:27.909Z,92.10
2019-02-02T14:48:17.891Z,91.92
2019-02-02T14:51:07.071Z,91.76
2019-02-02T14:53:56.402Z,91.79
2019-02-02T14:56:48.204Z,91.93
2019-02-02T14:59:37.102Z,91.83
2019-02-02T15:02:26.278Z,92.60
2019-02-02T15:05:16.227Z,93.06
2019-02-02T15:08:05.491Z,93.21
2019-02-02T15:10:54.574Z,93.33
2019-02-02T15:13:43.721Z,93.60
2019-02-02T15:16:32.961Z,93.93
2019-02-02T15:19:22.097Z,94.40
2019-02-02T15:22:11.310Z,94.80
2019-02-02T15:25:00.454Z,94.72
2019-02-02T15:27:50.022Z,94.67
2019-02-02T15:30:39.563Z,94.70
2019-02-02T15:33:37.508Z,94.81
2019-02-02T15:36:19.819Z,94.85
2019-02-02T15:39:49.769Z,94.93
2019-02-02T15:42:38.848Z,94.99
2019-02-02T15:48:23.295Z,94.92
2019-02-02T15:51:12.707Z,94.84
2019-02-02T15:57:10.125Z,94.76
2019-02-02T15:59:59.251Z,94.53
2019-02-02T16:02:48.621Z,94.49
2019-02-02T16:05:37.959Z,94.17
2019-02-02T16:08:27.527Z,94.19
2019-02-02T16:11:16.624Z,94.18
2019-02-02T16:14:06.181Z,94.13
2019-02-02T16:16:55.286Z,94.21
2019-02-02T16:19:44.398Z,94.22
2019-02-02T16:22:33.482Z,94.07
2019-02-02T16:25:15.288Z,94.08
2019-02-02T16:27:56.330Z,94.02
2019-02-02T16:30:45.472Z,93.99
2019-02-02T16:33:34.588Z,93.78
2019-02-02T16:36:23.797Z,93.68
2019-02-02T16:39:12.877Z,93.62
2019-02-02T16:42:02.000Z,93.49
2019-02-02T16:44:51.106Z,93.47
2019-02-02T16:47:40.230Z,93.45
2019-02-02T16:50:29.513Z,93.28
2019-02-02T16:53:21.714Z,93.31
2019-02-02T16:56:10.033Z,93.84
2019-02-02T16:58:59.164Z,94.32
2019-02-02T17:01:50.008Z,94.60
2019-02-02T17:04:39.141Z,94.48
2019-02-02T17:07:28.281Z,94.47
2019-02-02T17:10:20.069Z,94.30
2019-02-02T17:13:09.539Z,94.14
2019-02-02T17:15:59.031Z,93.97
2019-02-02T17:18:48.240Z,93.52
2019-02-02T17:21:37.341Z,93.50
2019-02-02T17:24:26.510Z,93.71
2019-02-02T17:27:15.630Z,93.65
2019-02-02T17:29:57.362Z,93.97
2019-02-02T17:32:46.631Z,94.25
2019-02-02T17:35:36.368Z,94.51
2019-02-02T17:38:25.504Z,94.49
2019-02-02T17:41:14.913Z,94.28
2019-02-02T17:44:04.130Z,94.03
2019-02-02T17:46:53.853Z,94.06
2019-02-02T17:49:43.267Z,94.03
2019-02-02T17:52:33.406Z,94.04
2019-02-02T17:55:22.506Z,94.12
2019-02-02T17:58:13.400Z,94.22
2019-02-02T18:01:02.937Z,94.23
2019-02-02T18:03:32.826Z,94.39
2019-02-02T18:06:02.948Z,94.37
2019-02-02T18:08:52.447Z,94.41
2019-02-02T18:11:41.801Z,94.58
2019-02-02T18:14:30.982Z,94.69
2019-02-02T18:17:21.136Z,94.46
2019-02-02T18:20:12.071Z,94.42
2019-02-02T18:22:41.928Z,94.43
2019-02-02T18:25:31.166Z,94.53
2019-02-02T18:28:01.090Z,94.59
2019-02-02T18:30:31.470Z,94.74
2019-02-02T18:33:01.422Z,94.80
2019-02-02T18:35:31.374Z,94.82
2019-02-02T18:38:01.318Z,94.81
2019-02-02T18:40:31.157Z,94.84
2019-02-02T18:43:01.029Z,94.88
2019-02-02T18:45:31.090Z,95.02
2019-02-02T18:48:01.077Z,94.91
2019-02-02T18:50:31.356Z,95.00
2019-02-02T18:53:01.259Z,94.91
2019-02-02T18:55:38.866Z,94.66
2019-02-02T18:58:08.732Z,94.54
2019-02-02T19:00:38.662Z,94.47
2019-02-02T19:03:09.058Z,94.41
2019-02-02T19:05:38.953Z,94.54
2019-02-02T19:08:09.038Z,94.74
2019-02-02T19:10:40.051Z,94.87
2019-02-02T19:13:10.413Z,94.91
2019-02-02T19:15:40.384Z,95.01
2019-02-02T19:18:10.385Z,95.27
2019-02-02T19:20:40.249Z,95.53
2019-02-02T19:23:10.218Z,95.55
2019-02-02T19:25:40.089Z,95.64
2019-02-02T19:28:10.223Z,95.76
2019-02-02T19:30:40.194Z,95.88
2019-02-02T19:33:10.688Z,95.78
2019-02-02T19:35:40.706Z,95.93
2019-02-02T19:38:10.862Z,95.96
2019-02-02T19:40:40.720Z,95.99
2019-02-02T19:43:10.661Z,96.09
2019-02-02T19:45:40.553Z,96.05
2019-02-02T19:48:10.407Z,96.05
2019-02-02T19:50:40.290Z,96.05
2019-02-02T19:53:10.266Z,95.97
2019-02-02T19:55:40.483Z,95.89
2019-02-02T19:58:10.444Z,95.94
2019-02-02T20:00:40.722Z,95.86
2019-02-02T20:03:10.573Z,95.76
2019-02-02T20:05:40.503Z,95.74
2019-02-02T20:08:10.372Z,95.82
2019-02-02T20:10:40.252Z,95.78
2019-02-02T20:13:10.113Z,95.86
2019-02-02T20:15:40.016Z,95.77
2019-02-02T20:18:10.734Z,95.70
2019-02-02T20:20:40.748Z,95.76
2019-02-02T20:23:10.628Z,95.78
2019-02-02T20:25:40.553Z,95.78
2019-02-02T20:28:10.504Z,95.78
2019-02-02T20:30:40.500Z,95.76
2019-02-02T20:33:10.405Z,95.78
2019-02-02T20:35:42.451Z,95.72
2019-02-02T20:38:12.354Z,95.71
2019-02-02T20:40:42.237Z,95.68
2019-02-02T20:43:12.098Z,95.59
2019-02-02T20:45:42.056Z,95.51
2019-02-02T20:48:11.944Z,95.36
2019-02-02T20:50:41.843Z,95.28
2019-02-02T20:53:11.812Z,95.28
2019-02-02T20:55:44.931Z,95.28
2019-02-02T20:58:14.787Z,95.14
2019-02-02T21:00:44.749Z,94.99
2019-02-02T21:03:14.710Z,94.75
2019-02-02T21:05:51.871Z,94.57
2019-02-02T21:08:16.148Z,94.48
2019-02-02T21:10:46.033Z,94.47
2019-02-02T21:13:15.924Z,94.33
2019-02-02T21:15:46.091Z,94.30
2019-02-02T21:18:16.264Z,94.33
2019-02-02T21:20:46.144Z,94.26
2019-02-02T21:23:16.021Z,94.25
2019-02-02T21:25:46.008Z,94.23
2019-02-02T21:28:16.250Z,94.36
2019-02-02T21:30:46.158Z,94.51
2019-02-02T21:33:15.997Z,94.70
2019-02-02T21:35:48.804Z,94.87
2019-02-02T21:38:17.568Z,94.91
2019-02-02T21:40:47.527Z,94.91
2019-02-02T21:43:17.409Z,94.79
2019-02-02T21:45:47.282Z,94.85
2019-02-02T21:48:17.130Z,94.89
2019-02-02T21:50:47.069Z,94.85
2019-02-02T21:53:17.233Z,94.75
2019-02-02T21:55:47.108Z,94.60
2019-02-02T21:58:17.584Z,94.49
2019-02-02T22:00:47.536Z,94.45
2019-02-02T22:03:17.395Z,94.51
2019-02-02T22:05:47.251Z,94.41
2019-02-02T22:08:17.152Z,94.38
2019-02-02T22:10:47.115Z,94.39
2019-02-02T22:13:17.351Z,94.42
2019-02-02T22:15:47.228Z,94.46
2019-02-02T22:18:17.186Z,94.56
2019-02-02T22:20:47.375Z,94.63
2019-02-02T22:23:17.233Z,94.49
2019-02-02T22:25:47.317Z,94.28
2019-02-02T22:28:17.210Z,94.26
2019-02-02T22:30:47.065Z,94.23
2019-02-02T22:33:16.920Z,94.20
2019-02-02T22:35:47.057Z,94.17
2019-02-02T22:38:16.971Z,94.14
2019-02-02T22:40:46.891Z,93.97
2019-02-02T22:43:16.748Z,94.01
2019-02-02T22:45:46.648Z,94.18
2019-02-02T22:48:16.604Z,94.29
2019-02-02T22:50:46.600Z,94.34
2019-02-02T22:53:16.674Z,94.33
2019-02-02T22:55:46.870Z,94.35
2019-02-02T22:58:16.730Z,94.37
2019-02-02T23:01:02.643Z,94.29
2019-02-02T23:03:44.088Z,94.12
2019-02-02T23:07:19.553Z,94.01
2019-02-02T23:10:50.847Z,94.00
2019-02-02T23:13:47.410Z,93.86
2019-02-02T23:16:29.351Z,93.62
2019-02-02T23:19:00.859Z,93.19
2019-02-02T23:21:32.234Z,92.81
2019-02-02T23:24:02.393Z,92.62
2019-02-02T23:26:32.468Z,92.66
2019-02-02T23:29:02.464Z,92.80
2019-02-02T23:31:32.337Z,92.85
2019-02-02T23:34:02.204Z,92.84
2019-02-02T23:36:32.159Z,92.91
2019-02-02T23:39:03.258Z,92.91
2019-02-02T23:41:33.406Z,93.06
2019-02-02T23:44:03.644Z,93.18
2019-02-02T23:46:33.615Z,93.36
2019-02-02T23:49:03.509Z,93.52
2019-02-02T23:51:33.467Z,93.66
2019-02-02T23:54:04.044Z,93.73
2019-02-02T23:56:34.267Z,93.72
2019-02-02T23:59:04.582Z,93.60
